createdAt,value
2023-05-19T00:00:05.321Z,0.00
2023-05-19T00:01:05.295Z,0.00
2023-05-19T00:02:05.325Z,0.00
2023-05-19T00:03:05.349Z,0.00
2023-05-19T00:04:05.286Z,0.00
2023-05-19T00:05:05.275Z,0.00
2023-05-19T00:06:05.258Z,0.00
2023-05-19T00:07:05.236Z,0.00
2023-05-19T00:08:05.218Z,0.00
2023-05-19T00:09:05.225Z,0.00
2023-05-19T00:10:05.208Z,0.00
2023-05-19T00:11:05.198Z,0.00
2023-05-19T00:12:05.194Z,0.00
2023-05-19T00:13:05.181Z,0.00
2023-05-19T00:14:05.164Z,0.00
2023-05-19T00:15:05.150Z,0.00
2023-05-19T00:16:05.160Z,0.00
2023-05-19T00:17:05.153Z,0.00
2023-05-19T00:18:05.174Z,0.00
2023-05-19T00:19:05.144Z,0.00
2023-05-19T00:20:05.094Z,0.00
2023-05-19T00:21:05.085Z,0.00
2023-05-19T00:22:05.074Z,0.00
2023-05-19T00:23:05.099Z,0.00
2023-05-19T00:24:05.073Z,0.00
2023-05-19T00:25:05.041Z,0.00
2023-05-19T00:26:05.031Z,0.00
2023-05-19T00:27:05.043Z,0.00
2023-05-19T00:28:05.029Z,0.00
2023-05-19T00:29:05.012Z,0.00
2023-05-19T00:30:05.002Z,0.00
2023-05-19T00:31:04.980Z,0.00
2023-05-19T00:32:05.060Z,0.00
2023-05-19T00:33:04.982Z,0.00
2023-05-19T00:34:04.976Z,0.00
2023-05-19T00:35:04.961Z,0.00
2023-05-19T00:36:04.941Z,0.00
2023-05-19T00:37:04.980Z,0.00
2023-05-19T00:38:04.924Z,0.00
2023-05-19T00:39:04.916Z,0.00
2023-05-19T00:40:04.890Z,0.00
2023-05-19T00:41:04.891Z,0.00
2023-05-19T00:42:04.909Z,0.00
2023-05-19T00:43:04.870Z,0.00
2023-05-19T00:44:04.860Z,0.00
2023-05-19T00:45:04.841Z,0.00
2023-05-19T00:46:04.949Z,0.00
2023-05-19T00:47:04.937Z,0.00
2023-05-19T00:48:04.848Z,0.00
2023-05-19T00:49:04.822Z,0.00
2023-05-19T00:50:04.796Z,0.00
2023-05-19T00:51:04.997Z,0.00
2023-05-19T00:52:04.792Z,0.00
2023-05-19T00:53:04.773Z,0.00
2023-05-19T00:54:04.759Z,0.00
2023-05-19T00:55:04.750Z,0.00
2023-05-19T00:56:04.765Z,0.00
2023-05-19T00:57:04.736Z,0.00
2023-05-19T00:58:04.723Z,0.00
2023-05-19T00:59:04.715Z,0.00
2023-05-19T01:00:04.707Z,0.00
2023-05-19T01:01:05.288Z,0.00
2023-05-19T01:02:04.692Z,0.00
2023-05-19T01:03:04.725Z,0.00
2023-05-19T01:04:04.776Z,0.00
2023-05-19T01:05:04.685Z,0.00
2023-05-19T01:06:04.632Z,0.00
2023-05-19T01:07:05.628Z,0.00
2023-05-19T01:08:04.635Z,0.00
2023-05-19T01:09:04.628Z,0.00
2023-05-19T01:10:04.640Z,0.00
2023-05-19T01:11:04.592Z,0.00
2023-05-19T01:12:04.584Z,0.00
2023-05-19T01:13:04.573Z,0.00
2023-05-19T01:14:04.598Z,0.00
2023-05-19T01:15:04.577Z,0.00
2023-05-19T01:16:04.584Z,0.00
2023-05-19T01:17:04.529Z,0.00
2023-05-19T01:18:04.572Z,0.00
2023-05-19T01:19:04.564Z,0.00
2023-05-19T01:20:04.492Z,0.00
2023-05-19T01:21:04.493Z,0.00
2023-05-19T01:22:04.476Z,0.00
2023-05-19T01:23:04.478Z,0.00
2023-05-19T01:24:04.493Z,0.00
2023-05-19T01:25:04.454Z,0.00
2023-05-19T01:26:04.440Z,0.00
2023-05-19T01:27:04.423Z,0.00
2023-05-19T01:28:04.443Z,0.00
2023-05-19T01:29:04.435Z,0.00
2023-05-19T01:30:04.436Z,0.00
2023-05-19T01:31:04.386Z,0.00
2023-05-19T01:32:04.409Z,0.00
2023-05-19T01:33:04.395Z,0.00
2023-05-19T01:34:04.381Z,0.00
2023-05-19T01:35:04.344Z,0.00
2023-05-19T01:36:04.344Z,0.00
2023-05-19T01:37:04.324Z,0.00
2023-05-19T01:38:04.323Z,0.00
2023-05-19T01:39:04.315Z,0.00
2023-05-19T01:40:04.301Z,0.00
2023-05-19T01:41:04.305Z,0.00
2023-05-19T01:42:04.273Z,0.00
2023-05-19T01:43:04.278Z,0.00
2023-05-19T01:44:05.250Z,0.00
2023-05-19T01:45:04.242Z,0.00
2023-05-19T01:46:04.366Z,0.00
2023-05-19T01:47:04.237Z,0.00
2023-05-19T01:48:04.278Z,0.00
2023-05-19T01:49:04.193Z,0.00
2023-05-19T01:50:04.229Z,0.00
2023-05-19T01:51:04.184Z,0.00
2023-05-19T01:52:04.159Z,0.00
2023-05-19T01:53:04.184Z,0.00
2023-05-19T01:54:04.142Z,0.00
2023-05-19T01:55:04.136Z,0.00
2023-05-19T01:56:04.132Z,0.00
2023-05-19T01:57:04.138Z,0.00
2023-05-19T01:58:04.109Z,0.00
2023-05-19T01:59:04.101Z,0.00
2023-05-19T02:00:04.086Z,0.00
2023-05-19T02:01:04.113Z,0.00
2023-05-19T02:02:04.081Z,0.00
2023-05-19T02:03:04.062Z,0.00
2023-05-19T02:04:04.052Z,0.00
2023-05-19T02:05:04.026Z,0.00
2023-05-19T02:06:04.052Z,0.00
2023-05-19T02:07:04.032Z,0.00
2023-05-19T02:08:04.000Z,0.00
2023-05-19T02:09:04.000Z,0.00
2023-05-19T02:10:03.987Z,0.00
2023-05-19T02:11:03.998Z,0.00
2023-05-19T02:12:03.957Z,0.00
2023-05-19T02:13:03.938Z,0.00
2023-05-19T02:14:03.938Z,0.00
2023-05-19T02:15:03.922Z,0.00
2023-05-19T02:16:03.986Z,0.00
2023-05-19T02:17:03.888Z,0.00
2023-05-19T02:18:03.928Z,0.00
2023-05-19T02:19:03.880Z,0.00
2023-05-19T02:20:03.870Z,0.00
2023-05-19T02:21:03.858Z,0.00
2023-05-19T02:22:03.834Z,0.00
2023-05-19T02:23:03.850Z,0.00
2023-05-19T02:24:03.804Z,0.00
2023-05-19T02:25:03.818Z,0.00
2023-05-19T02:26:03.789Z,0.00
2023-05-19T02:27:03.791Z,0.00
2023-05-19T02:28:03.773Z,0.00
2023-05-19T02:29:03.754Z,0.00
2023-05-19T02:30:03.764Z,0.00
2023-05-19T02:31:03.726Z,0.00
2023-05-19T02:32:03.754Z,0.00
2023-05-19T02:33:03.712Z,0.00
2023-05-19T02:34:03.727Z,0.00
2023-05-19T02:35:03.713Z,0.00
2023-05-19T02:36:03.676Z,0.00
2023-05-19T02:37:03.668Z,0.00
2023-05-19T02:38:03.671Z,0.00
2023-05-19T02:39:03.651Z,0.00
2023-05-19T02:40:03.636Z,0.00
2023-05-19T02:41:03.621Z,0.00
2023-05-19T02:42:03.619Z,0.00
2023-05-19T02:43:03.619Z,0.00
2023-05-19T02:44:03.604Z,0.00
2023-05-19T02:45:03.576Z,0.00
2023-05-19T02:46:03.615Z,0.00
2023-05-19T02:47:03.562Z,0.00
2023-05-19T02:48:03.621Z,0.00
2023-05-19T02:49:03.569Z,0.00
2023-05-19T02:50:03.534Z,0.00
2023-05-19T02:51:03.538Z,0.00
2023-05-19T02:52:04.510Z,0.00
2023-05-19T02:53:03.557Z,0.00
2023-05-19T02:54:03.574Z,0.00
2023-05-19T02:55:03.520Z,0.00
2023-05-19T02:56:03.553Z,0.00
2023-05-19T02:57:03.450Z,0.00
2023-05-19T02:58:03.454Z,0.00
2023-05-19T02:59:03.428Z,0.00
2023-05-19T03:00:03.451Z,0.00
2023-05-19T03:01:03.404Z,0.00
2023-05-19T03:02:03.443Z,0.00
2023-05-19T03:03:03.431Z,0.00
2023-05-19T03:04:03.520Z,0.00
2023-05-19T03:05:03.380Z,0.00
2023-05-19T03:06:03.341Z,0.00
2023-05-19T03:07:03.335Z,0.00
2023-05-19T03:08:03.332Z,0.00
2023-05-19T03:09:03.328Z,0.00
2023-05-19T03:10:03.299Z,0.00
2023-05-19T03:11:03.287Z,0.00
2023-05-19T03:12:03.297Z,0.00
2023-05-19T03:13:03.254Z,0.00
2023-05-19T03:14:03.262Z,0.00
2023-05-19T03:15:03.237Z,0.00
2023-05-19T03:16:03.290Z,0.00
2023-05-19T03:17:03.290Z,0.00
2023-05-19T03:18:03.247Z,0.00
2023-05-19T03:19:03.241Z,5.62
2023-05-19T03:20:03.195Z,5.62
2023-05-19T03:21:03.191Z,5.62
2023-05-19T03:22:03.187Z,5.62
2023-05-19T03:23:03.159Z,5.62
2023-05-19T03:24:03.143Z,5.62
2023-05-19T03:25:03.165Z,5.62
2023-05-19T03:26:03.130Z,5.62
2023-05-19T03:27:03.126Z,5.62
2023-05-19T03:28:03.117Z,11.25
2023-05-19T03:29:03.093Z,11.25
2023-05-19T03:30:05.697Z,11.25
2023-05-19T03:31:03.087Z,11.25
2023-05-19T03:32:03.102Z,11.25
2023-05-19T03:33:03.133Z,16.88
2023-05-19T03:34:03.039Z,16.88
2023-05-19T03:35:03.048Z,16.88
2023-05-19T03:36:03.026Z,16.88
2023-05-19T03:37:03.015Z,16.88
2023-05-19T03:38:02.995Z,22.50
2023-05-19T03:39:02.988Z,22.50
2023-05-19T03:40:03.021Z,22.50
2023-05-19T03:41:02.974Z,22.50
2023-05-19T03:42:02.958Z,22.50
2023-05-19T03:43:02.944Z,28.12
2023-05-19T03:44:02.966Z,28.12
2023-05-19T03:45:02.947Z,28.12
2023-05-19T03:46:02.929Z,28.12
2023-05-19T03:47:02.899Z,28.12
2023-05-19T03:48:02.922Z,33.75
2023-05-19T03:49:02.899Z,33.75
2023-05-19T03:50:02.878Z,33.75
2023-05-19T03:51:02.849Z,33.75
2023-05-19T03:52:34.877Z,39.38
2023-05-19T03:53:02.840Z,39.38
2023-05-19T03:54:02.849Z,39.38
2023-05-19T03:55:02.824Z,39.38
2023-05-19T03:56:02.829Z,45.00
2023-05-19T03:57:02.853Z,45.00
2023-05-19T03:58:02.784Z,45.00
2023-05-19T03:59:02.781Z,45.00
2023-05-19T04:00:02.745Z,50.62
2023-05-19T04:01:02.751Z,50.62
2023-05-19T04:02:02.748Z,50.62
2023-05-19T04:03:02.859Z,50.62
2023-05-19T04:04:02.738Z,56.25
2023-05-19T04:05:02.692Z,56.25
2023-05-19T04:06:02.694Z,56.25
2023-05-19T04:07:02.676Z,56.25
2023-05-19T04:08:02.687Z,61.88
2023-05-19T04:09:02.658Z,61.88
2023-05-19T04:10:02.655Z,61.88
2023-05-19T04:11:02.639Z,67.50
2023-05-19T04:12:02.640Z,67.50
2023-05-19T04:13:02.618Z,67.50
2023-05-19T04:14:02.595Z,73.12
2023-05-19T04:15:02.583Z,73.12
2023-05-19T04:16:02.574Z,73.12
2023-05-19T04:17:02.577Z,78.75
2023-05-19T04:18:02.695Z,78.75
2023-05-19T04:19:02.565Z,78.75
2023-05-19T04:20:02.535Z,84.38
2023-05-19T04:21:02.508Z,84.38
2023-05-19T04:22:02.518Z,84.38
2023-05-19T04:23:02.501Z,84.38
2023-05-19T04:24:02.505Z,90.00
2023-05-19T04:25:02.477Z,90.00
2023-05-19T04:26:02.479Z,90.00
2023-05-19T04:27:02.466Z,95.62
2023-05-19T04:28:02.446Z,95.62
2023-05-19T04:29:02.437Z,101.25
2023-05-19T04:30:02.437Z,101.25
2023-05-19T04:31:02.461Z,106.88
2023-05-19T04:32:02.406Z,106.88
2023-05-19T04:33:02.404Z,112.50
2023-05-19T04:34:02.376Z,112.50
2023-05-19T04:35:02.352Z,118.12
2023-05-19T04:36:02.352Z,118.12
2023-05-19T04:37:02.323Z,123.75
2023-05-19T04:38:02.320Z,123.75
2023-05-19T04:39:02.354Z,129.38
2023-05-19T04:40:02.315Z,129.38
2023-05-19T04:41:02.303Z,135.00
2023-05-19T04:42:02.272Z,135.00
2023-05-19T04:43:02.426Z,140.62
2023-05-19T04:44:02.246Z,140.62
2023-05-19T04:45:02.265Z,140.62
2023-05-19T04:46:02.227Z,140.62
2023-05-19T04:47:02.260Z,146.25
2023-05-19T04:48:02.293Z,146.25
2023-05-19T04:49:03.210Z,146.25
2023-05-19T04:50:02.205Z,146.25
2023-05-19T04:51:02.176Z,146.25
2023-05-19T04:52:02.167Z,151.88
2023-05-19T04:53:02.154Z,151.88
2023-05-19T04:54:02.174Z,151.88
2023-05-19T04:55:02.165Z,157.50
2023-05-19T04:56:02.142Z,163.12
2023-05-19T04:57:02.151Z,163.12
2023-05-19T04:58:02.104Z,163.12
2023-05-19T04:59:02.148Z,168.75
2023-05-19T05:00:02.089Z,168.75
2023-05-19T05:01:02.054Z,168.75
2023-05-19T05:02:02.099Z,174.38
2023-05-19T05:03:02.064Z,174.38
2023-05-19T05:04:02.156Z,180.00
2023-05-19T05:05:02.017Z,185.62
2023-05-19T05:06:02.009Z,185.62
2023-05-19T05:07:01.997Z,191.25
2023-05-19T05:08:02.053Z,185.62
2023-05-19T05:09:02.025Z,185.62
2023-05-19T05:10:01.996Z,185.62
2023-05-19T05:11:01.944Z,185.62
2023-05-19T05:12:01.964Z,185.62
2023-05-19T05:13:02.940Z,185.62
2023-05-19T05:14:01.934Z,185.62
2023-05-19T05:15:02.002Z,191.25
2023-05-19T05:16:01.930Z,185.62
2023-05-19T05:17:01.905Z,185.62
2023-05-19T05:18:01.998Z,185.62
2023-05-19T05:19:01.872Z,185.62
2023-05-19T05:20:01.849Z,185.62
2023-05-19T05:21:01.831Z,185.62
2023-05-19T05:22:01.845Z,185.62
2023-05-19T05:23:01.836Z,185.62
2023-05-19T05:24:01.815Z,185.62
2023-05-19T05:25:01.788Z,185.62
2023-05-19T05:26:01.770Z,185.62
2023-05-19T05:27:01.786Z,185.62
2023-05-19T05:28:01.772Z,185.62
2023-05-19T05:29:01.811Z,185.62
2023-05-19T05:30:01.726Z,185.62
2023-05-19T05:31:01.726Z,185.62
2023-05-19T05:32:01.741Z,185.62
2023-05-19T05:33:01.719Z,185.62
2023-05-19T05:34:01.686Z,185.62
2023-05-19T05:35:01.695Z,185.62
2023-05-19T05:36:01.693Z,185.62
2023-05-19T05:37:01.773Z,185.62
2023-05-19T05:38:01.657Z,185.62
2023-05-19T05:39:01.647Z,191.25
2023-05-19T05:40:01.630Z,191.25
2023-05-19T05:41:01.623Z,191.25
2023-05-19T05:42:02.615Z,196.88
2023-05-19T05:43:01.609Z,196.88
2023-05-19T05:44:01.589Z,202.50
2023-05-19T05:45:01.581Z,202.50
2023-05-19T05:46:01.626Z,202.50
2023-05-19T05:47:01.582Z,202.50
2023-05-19T05:48:01.609Z,208.12
2023-05-19T05:49:01.542Z,208.12
2023-05-19T05:50:01.549Z,208.12
2023-05-19T05:51:01.547Z,208.12
2023-05-19T05:52:06.130Z,213.75
2023-05-19T05:53:03.498Z,213.75
2023-05-19T05:54:01.493Z,213.75
2023-05-19T05:55:01.494Z,213.75
2023-05-19T05:56:01.462Z,213.75
2023-05-19T05:57:01.474Z,213.75
2023-05-19T05:58:01.462Z,219.38
2023-05-19T05:59:01.436Z,219.38
2023-05-19T06:00:01.443Z,219.38
2023-05-19T06:01:01.420Z,225.00
2023-05-19T06:02:01.439Z,225.00
2023-05-19T06:03:01.462Z,225.00
2023-05-19T06:04:01.405Z,225.00
2023-05-19T06:05:01.444Z,225.00
2023-05-19T06:06:02.442Z,225.00
2023-05-19T06:07:01.395Z,225.00
2023-05-19T06:08:01.352Z,236.25
2023-05-19T06:09:01.368Z,253.12
2023-05-19T06:10:01.347Z,264.38
2023-05-19T06:11:01.323Z,270.00
2023-05-19T06:12:01.313Z,275.62
2023-05-19T06:13:01.323Z,281.25
2023-05-19T06:14:01.321Z,286.88
2023-05-19T06:15:01.277Z,292.50
2023-05-19T06:16:02.190Z,292.50
2023-05-19T06:17:02.268Z,298.12
2023-05-19T06:18:01.456Z,298.12
2023-05-19T06:19:01.292Z,298.12
2023-05-19T06:20:01.235Z,303.75
2023-05-19T06:21:01.239Z,298.12
2023-05-19T06:22:01.221Z,303.75
2023-05-19T06:23:01.256Z,309.38
2023-05-19T06:24:01.242Z,315.00
2023-05-19T06:25:01.194Z,320.62
2023-05-19T06:26:01.194Z,320.62
2023-05-19T06:27:01.213Z,326.25
2023-05-19T06:28:01.185Z,331.88
2023-05-19T06:29:01.155Z,331.88
2023-05-19T06:30:01.175Z,337.50
2023-05-19T06:31:01.163Z,337.50
2023-05-19T06:32:01.124Z,337.50
2023-05-19T06:33:01.137Z,337.50
2023-05-19T06:34:01.132Z,337.50
2023-05-19T06:35:01.151Z,337.50
2023-05-19T06:36:01.118Z,337.50
2023-05-19T06:37:01.074Z,337.50
2023-05-19T06:38:01.101Z,337.50
2023-05-19T06:39:02.604Z,337.50
2023-05-19T06:40:01.050Z,337.50
2023-05-19T06:41:01.038Z,337.50
2023-05-19T06:42:01.045Z,337.50
2023-05-19T06:43:01.055Z,343.12
2023-05-19T06:44:01.007Z,343.12
2023-05-19T06:45:01.000Z,343.12
2023-05-19T06:46:01.005Z,348.75
2023-05-19T06:47:01.058Z,348.75
2023-05-19T06:48:01.032Z,348.75
2023-05-19T06:49:00.956Z,348.75
2023-05-19T06:50:00.954Z,348.75
2023-05-19T06:51:00.989Z,348.75
2023-05-19T06:52:00.934Z,348.75
2023-05-19T06:53:00.943Z,348.75
2023-05-19T06:54:00.946Z,354.38
2023-05-19T06:55:00.935Z,360.00
2023-05-19T06:56:00.881Z,360.00
2023-05-19T06:57:00.870Z,360.00
2023-05-19T06:58:00.889Z,360.00
2023-05-19T06:59:00.848Z,354.38
2023-05-19T07:00:00.842Z,354.38
2023-05-19T07:01:00.854Z,348.75
2023-05-19T07:02:00.832Z,343.12
2023-05-19T07:03:00.912Z,343.12
2023-05-19T07:04:00.888Z,343.12
2023-05-19T07:05:00.817Z,343.12
2023-05-19T07:06:00.826Z,320.62
2023-05-19T07:07:00.774Z,315.00
2023-05-19T07:08:00.764Z,326.25
2023-05-19T07:09:00.756Z,292.50
2023-05-19T07:10:00.764Z,281.25
2023-05-19T07:11:00.729Z,298.12
2023-05-19T07:12:00.722Z,298.12
2023-05-19T07:13:00.713Z,298.12
2023-05-19T07:14:00.734Z,320.62
2023-05-19T07:15:00.726Z,320.62
2023-05-19T07:16:00.815Z,315.00
2023-05-19T07:17:00.670Z,320.62
2023-05-19T07:18:00.736Z,320.62
2023-05-19T07:19:00.766Z,320.62
2023-05-19T07:20:00.660Z,320.62
2023-05-19T07:21:00.643Z,320.62
2023-05-19T07:22:00.656Z,320.62
2023-05-19T07:23:00.675Z,320.62
2023-05-19T07:24:00.634Z,320.62
2023-05-19T07:25:00.600Z,320.62
2023-05-19T07:26:00.609Z,320.62
2023-05-19T07:27:00.585Z,320.62
2023-05-19T07:28:00.575Z,320.62
2023-05-19T07:29:00.577Z,320.62
2023-05-19T07:30:00.550Z,320.62
2023-05-19T07:31:00.530Z,326.25
2023-05-19T07:32:00.577Z,326.25
2023-05-19T07:33:00.602Z,326.25
2023-05-19T07:34:00.508Z,326.25
2023-05-19T07:35:00.504Z,326.25
2023-05-19T07:36:00.494Z,326.25
2023-05-19T07:37:00.482Z,326.25
2023-05-19T07:38:00.487Z,326.25
2023-05-19T07:39:00.480Z,326.25
2023-05-19T07:40:00.490Z,326.25
2023-05-19T07:41:00.481Z,326.25
2023-05-19T07:42:00.455Z,326.25
2023-05-19T07:43:00.435Z,326.25
2023-05-19T07:44:00.414Z,326.25
2023-05-19T07:45:00.415Z,326.25
2023-05-19T07:46:00.467Z,326.25
2023-05-19T07:47:00.397Z,326.25
2023-05-19T07:48:00.553Z,326.25
2023-05-19T07:49:00.368Z,331.88
2023-05-19T07:50:00.363Z,331.88
2023-05-19T07:51:00.342Z,331.88
2023-05-19T07:52:00.345Z,331.88
2023-05-19T07:53:00.323Z,331.88
2023-05-19T07:54:00.317Z,331.88
2023-05-19T07:55:00.300Z,331.88
2023-05-19T07:56:00.296Z,331.88
2023-05-19T07:57:00.297Z,331.88
2023-05-19T07:58:00.274Z,337.50
2023-05-19T07:59:00.261Z,315.00
2023-05-19T08:00:00.247Z,326.25
2023-05-19T08:01:00.267Z,320.62
2023-05-19T08:02:00.343Z,320.62
2023-05-19T08:03:00.304Z,331.88
2023-05-19T08:04:00.321Z,326.25
2023-05-19T08:05:00.194Z,320.62
2023-05-19T08:06:00.227Z,320.62
2023-05-19T08:07:00.179Z,331.88
2023-05-19T08:08:00.166Z,320.62
2023-05-19T08:09:00.168Z,331.88
2023-05-19T08:10:00.195Z,326.25
2023-05-19T08:11:00.189Z,315.00
2023-05-19T08:12:00.150Z,337.50
2023-05-19T08:13:00.139Z,303.75
2023-05-19T08:14:00.135Z,326.25
2023-05-19T08:15:01.399Z,337.50
2023-05-19T08:16:01.194Z,326.25
2023-05-19T08:17:00.117Z,343.12
2023-05-19T08:18:00.201Z,343.12
2023-05-19T08:19:00.146Z,343.12
2023-05-19T08:20:00.074Z,343.12
2023-05-19T08:21:00.049Z,343.12
2023-05-19T08:22:00.138Z,343.12
2023-05-19T08:23:00.045Z,343.12
2023-05-19T08:24:00.031Z,343.12
2023-05-19T08:25:00.033Z,343.12
2023-05-19T08:26:00.008Z,337.50
2023-05-19T08:26:59.992Z,343.12
2023-05-19T08:28:00.064Z,343.12
2023-05-19T08:29:00.056Z,343.12
2023-05-19T08:29:59.985Z,343.12
2023-05-19T08:30:59.979Z,326.25
2023-05-19T08:31:59.941Z,315.00
2023-05-19T08:33:00.019Z,309.38
2023-05-19T08:33:59.950Z,298.12
2023-05-19T08:34:59.912Z,253.12
2023-05-19T08:35:59.908Z,309.38
2023-05-19T08:36:59.933Z,326.25
2023-05-19T08:37:59.886Z,264.38
2023-05-19T08:38:59.949Z,258.75
2023-05-19T08:39:59.901Z,315.00
2023-05-19T08:40:59.924Z,275.62
2023-05-19T08:41:59.868Z,303.75
2023-05-19T08:42:59.913Z,309.38
2023-05-19T08:43:59.842Z,315.00
2023-05-19T08:44:59.904Z,292.50
2023-05-19T08:45:59.798Z,281.25
2023-05-19T08:46:59.908Z,326.25
2023-05-19T08:47:59.841Z,337.50
2023-05-19T08:48:59.791Z,298.12
2023-05-19T08:49:59.769Z,270.00
2023-05-19T08:50:59.759Z,343.12
2023-05-19T08:51:59.744Z,343.12
2023-05-19T08:52:59.750Z,343.12
2023-05-19T08:53:59.725Z,343.12
2023-05-19T08:54:59.720Z,343.12
2023-05-19T08:55:59.698Z,348.75
2023-05-19T08:56:59.702Z,348.75
2023-05-19T08:57:59.716Z,354.38
2023-05-19T08:58:59.692Z,360.00
2023-05-19T08:59:59.666Z,309.38
2023-05-19T09:00:59.680Z,354.38
2023-05-19T09:01:59.649Z,354.38
2023-05-19T09:03:06.122Z,360.00
2023-05-19T09:04:01.809Z,365.62
2023-05-19T09:04:59.764Z,371.25
2023-05-19T09:05:59.613Z,371.25
2023-05-19T09:06:59.626Z,371.25
2023-05-19T09:07:59.580Z,371.25
2023-05-19T09:08:59.577Z,371.25
2023-05-19T09:09:59.574Z,337.50
2023-05-19T09:10:59.619Z,376.88
2023-05-19T09:11:59.570Z,388.12
2023-05-19T09:12:59.535Z,399.38
2023-05-19T09:13:59.560Z,405.00
2023-05-19T09:14:59.518Z,405.00
2023-05-19T09:15:59.530Z,326.25
2023-05-19T09:16:59.579Z,315.00
2023-05-19T09:17:59.522Z,331.88
2023-05-19T09:18:59.524Z,388.12
2023-05-19T09:19:59.465Z,371.25
2023-05-19T09:20:59.517Z,382.50
2023-05-19T09:21:59.504Z,388.12
2023-05-19T09:22:59.440Z,421.88
2023-05-19T09:23:59.435Z,427.50
2023-05-19T09:24:59.433Z,444.38
2023-05-19T09:25:59.440Z,405.00
2023-05-19T09:27:00.456Z,376.88
2023-05-19T09:28:00.382Z,371.25
2023-05-19T09:28:59.376Z,371.25
2023-05-19T09:29:59.467Z,371.25
2023-05-19T09:31:00.383Z,405.00
2023-05-19T09:31:59.421Z,444.38
2023-05-19T09:32:59.397Z,461.25
2023-05-19T09:33:59.337Z,410.62
2023-05-19T09:34:59.378Z,472.50
2023-05-19T09:35:59.315Z,405.00
2023-05-19T09:36:59.307Z,450.00
2023-05-19T09:37:59.348Z,472.50
2023-05-19T09:38:59.279Z,433.12
2023-05-19T09:39:59.338Z,461.25
2023-05-19T09:40:59.273Z,416.25
2023-05-19T09:41:59.258Z,427.50
2023-05-19T09:42:59.235Z,500.62
2023-05-19T09:43:59.266Z,506.25
2023-05-19T09:44:59.251Z,517.50
2023-05-19T09:45:59.262Z,517.50
2023-05-19T09:46:59.251Z,506.25
2023-05-19T09:47:59.199Z,517.50
2023-05-19T09:48:59.178Z,495.00
2023-05-19T09:49:59.295Z,483.75
2023-05-19T09:50:59.161Z,455.62
2023-05-19T09:51:59.150Z,416.25
2023-05-19T09:52:59.136Z,416.25
2023-05-19T09:54:31.047Z,438.75
2023-05-19T09:54:59.133Z,472.50
2023-05-19T09:55:59.110Z,489.38
2023-05-19T09:56:59.139Z,517.50
2023-05-19T09:57:59.183Z,528.75
2023-05-19T09:58:59.140Z,551.25
2023-05-19T09:59:59.079Z,618.75
2023-05-19T10:00:59.090Z,551.25
2023-05-19T10:01:59.063Z,540.00
2023-05-19T10:02:59.141Z,528.75
2023-05-19T10:03:59.026Z,517.50
2023-05-19T10:04:59.066Z,523.12
2023-05-19T10:05:59.010Z,511.88
2023-05-19T10:06:59.010Z,511.88
2023-05-19T10:07:59.023Z,478.12
2023-05-19T10:08:58.986Z,478.12
2023-05-19T10:09:58.966Z,461.25
2023-05-19T10:10:58.991Z,472.50
2023-05-19T10:11:59.013Z,416.25
2023-05-19T10:12:58.963Z,388.12
2023-05-19T10:13:58.943Z,376.88
2023-05-19T10:14:58.913Z,371.25
2023-05-19T10:15:59.908Z,427.50
2023-05-19T10:16:58.992Z,410.62
2023-05-19T10:17:58.917Z,438.75
2023-05-19T10:18:58.935Z,495.00
2023-05-19T10:19:58.857Z,500.62
2023-05-19T10:20:58.867Z,511.88
2023-05-19T10:21:58.868Z,523.12
2023-05-19T10:22:58.842Z,551.25
2023-05-19T10:23:58.880Z,556.88
2023-05-19T10:24:58.820Z,545.62
2023-05-19T10:25:58.854Z,528.75
2023-05-19T10:26:58.851Z,511.88
2023-05-19T10:27:58.789Z,495.00
2023-05-19T10:28:58.779Z,483.75
2023-05-19T10:29:58.766Z,472.50
2023-05-19T10:30:58.809Z,472.50
2023-05-19T10:31:58.817Z,472.50
2023-05-19T10:32:58.744Z,472.50
2023-05-19T10:33:59.762Z,478.12
2023-05-19T10:34:58.722Z,478.12
2023-05-19T10:35:58.731Z,483.75
2023-05-19T10:36:58.699Z,495.00
2023-05-19T10:37:58.692Z,416.25
2023-05-19T10:38:58.680Z,416.25
2023-05-19T10:39:58.688Z,410.62
2023-05-19T10:40:58.682Z,393.75
2023-05-19T10:41:58.665Z,393.75
2023-05-19T10:42:58.648Z,421.88
2023-05-19T10:43:58.628Z,399.38
2023-05-19T10:44:58.640Z,433.12
2023-05-19T10:45:58.603Z,427.50
2023-05-19T10:46:58.637Z,421.88
2023-05-19T10:47:58.595Z,421.88
2023-05-19T10:48:58.598Z,421.88
2023-05-19T10:49:58.600Z,421.88
2023-05-19T10:50:58.561Z,427.50
2023-05-19T10:51:58.556Z,421.88
2023-05-19T10:52:58.551Z,348.75
2023-05-19T10:53:58.563Z,421.88
2023-05-19T10:54:58.652Z,433.12
2023-05-19T10:55:58.538Z,427.50
2023-05-19T10:56:58.516Z,410.62
2023-05-19T10:57:58.510Z,427.50
2023-05-19T10:58:59.483Z,433.12
2023-05-19T10:59:58.474Z,438.75
2023-05-19T11:00:58.506Z,365.62
2023-05-19T11:01:58.464Z,444.38
2023-05-19T11:02:58.531Z,455.62
2023-05-19T11:03:58.489Z,455.62
2023-05-19T11:04:58.452Z,461.25
2023-05-19T11:05:58.412Z,461.25
2023-05-19T11:06:58.407Z,466.88
2023-05-19T11:07:58.427Z,466.88
2023-05-19T11:08:58.396Z,472.50
2023-05-19T11:09:58.416Z,483.75
2023-05-19T11:10:58.364Z,466.88
2023-05-19T11:11:58.371Z,472.50
2023-05-19T11:12:58.476Z,466.88
2023-05-19T11:13:58.344Z,461.25
2023-05-19T11:14:58.340Z,466.88
2023-05-19T11:15:58.328Z,466.88
2023-05-19T11:16:58.418Z,461.25
2023-05-19T11:17:58.351Z,455.62
2023-05-19T11:18:58.313Z,455.62
2023-05-19T11:19:58.291Z,455.62
2023-05-19T11:20:58.336Z,455.62
2023-05-19T11:21:58.293Z,455.62
2023-05-19T11:22:58.314Z,444.38
2023-05-19T11:23:58.367Z,433.12
2023-05-19T11:24:58.237Z,388.12
2023-05-19T11:25:58.242Z,371.25
2023-05-19T11:26:58.243Z,421.88
2023-05-19T11:27:58.206Z,455.62
2023-05-19T11:28:58.196Z,461.25
2023-05-19T11:29:58.176Z,478.12
2023-05-19T11:30:58.174Z,500.62
2023-05-19T11:31:58.235Z,506.25
2023-05-19T11:32:58.171Z,500.62
2023-05-19T11:33:58.149Z,495.00
2023-05-19T11:34:58.248Z,483.75
2023-05-19T11:35:58.352Z,466.88
2023-05-19T11:36:58.115Z,450.00
2023-05-19T11:37:58.145Z,438.75
2023-05-19T11:38:58.110Z,433.12
2023-05-19T11:39:58.099Z,433.12
2023-05-19T11:40:58.124Z,433.12
2023-05-19T11:41:58.084Z,427.50
2023-05-19T11:42:58.059Z,427.50
2023-05-19T11:43:58.071Z,427.50
2023-05-19T11:44:58.049Z,427.50
2023-05-19T11:45:58.117Z,399.38
2023-05-19T11:46:58.028Z,421.88
2023-05-19T11:48:02.616Z,416.25
2023-05-19T11:49:00.008Z,416.25
2023-05-19T11:49:58.015Z,416.25
2023-05-19T11:50:58.004Z,416.25
2023-05-19T11:51:57.981Z,421.88
2023-05-19T11:52:57.963Z,416.25
2023-05-19T11:53:57.948Z,410.62
2023-05-19T11:54:57.956Z,421.88
2023-05-19T11:55:57.925Z,371.25
2023-05-19T11:56:57.914Z,393.75
2023-05-19T11:58:03.838Z,348.75
2023-05-19T11:58:59.905Z,348.75
2023-05-19T11:59:57.924Z,360.00
2023-05-19T12:00:57.882Z,461.25
2023-05-19T12:01:57.906Z,478.12
2023-05-19T12:02:57.935Z,483.75
2023-05-19T12:03:57.938Z,483.75
2023-05-19T12:04:57.919Z,472.50
2023-05-19T12:05:57.878Z,461.25
2023-05-19T12:06:57.813Z,444.38
2023-05-19T12:07:57.842Z,393.75
2023-05-19T12:08:57.819Z,421.88
2023-05-19T12:09:57.824Z,416.25
2023-05-19T12:10:57.794Z,348.75
2023-05-19T12:11:57.783Z,399.38
2023-05-19T12:12:57.763Z,399.38
2023-05-19T12:13:57.771Z,410.62
2023-05-19T12:14:57.778Z,382.50
2023-05-19T12:15:57.756Z,410.62
2023-05-19T12:16:57.719Z,416.25
2023-05-19T12:17:57.762Z,405.00
2023-05-19T12:18:57.782Z,399.38
2023-05-19T12:19:57.704Z,416.25
2023-05-19T12:20:57.701Z,455.62
2023-05-19T12:21:57.677Z,421.88
2023-05-19T12:22:57.716Z,478.12
2023-05-19T12:23:57.674Z,483.75
2023-05-19T12:24:57.647Z,495.00
2023-05-19T12:25:58.640Z,517.50
2023-05-19T12:26:57.653Z,528.75
2023-05-19T12:27:58.153Z,534.38
2023-05-19T12:28:57.614Z,545.62
2023-05-19T12:29:57.616Z,556.88
2023-05-19T12:30:57.596Z,556.88
2023-05-19T12:31:57.643Z,556.88
2023-05-19T12:32:57.728Z,573.75
2023-05-19T12:33:58.578Z,585.00
2023-05-19T12:34:57.547Z,601.88
2023-05-19T12:35:57.544Z,613.12
2023-05-19T12:36:57.550Z,624.38
2023-05-19T12:37:57.529Z,573.75
2023-05-19T12:38:57.518Z,556.88
2023-05-19T12:39:57.516Z,568.12
2023-05-19T12:40:57.494Z,545.62
2023-05-19T12:41:57.503Z,517.50
2023-05-19T12:42:57.477Z,517.50